Time;durP1;ratioP1;P1;durP2;ratioP2;P2;SDS_P1;SDS_P2;PMS_P1;PMS_P2;Temp;Humidity;BMP_temperature;BMP_pressure;BME280_temperature;BME280_humidity;BME280_pressure;Samples;Min_cycle;Max_cycle;Signal;HPM_P1;HPM_P2
2023/10/24 00:00:55;;;;;;;10.40;9.30;;;;;;;11.71;79.56;95455.25;4989760;28;20276;-70
2023/10/24 00:03:20;;;;;;;8.80;8.00;;;;;;;11.81;79.18;95443.19;4989825;28;20268;-72
2023/10/24 00:05:48;;;;;;;9.30;8.43;;;;;;;11.82;79.04;95435.22;4989322;28;20203;-71
2023/10/24 00:08:13;;;;;;;10.70;8.47;;;;;;;11.93;77.76;95437.22;4989518;28;20208;-72
2023/10/24 00:10:39;;;;;;;8.90;8.07;;;;;;;11.88;78.37;95435.78;4989629;28;20414;-72
2023/10/24 00:13:04;;;;;;;9.93;8.93;;;;;;;11.81;79.51;95443.19;4989538;28;20265;-72
2023/10/24 00:15:30;;;;;;;9.90;8.33;;;;;;;11.61;80.44;95447.94;4989858;28;20217;-70
2023/10/24 00:17:55;;;;;;;8.83;7.87;;;;;;;11.71;79.86;95466.59;4989910;28;20204;-73
2023/10/24 00:20:20;;;;;;;21.53;8.37;;;;;;;11.70;79.15;95443.06;4989636;28;20181;-70
2023/10/24 00:22:46;;;;;;;10.07;8.23;;;;;;;11.50;79.90;95434.63;4989310;28;20872;-69
2023/10/24 00:25:11;;;;;;;9.03;8.23;;;;;;;11.40;80.80;95423.03;4989390;28;20264;-71
2023/10/24 00:27:36;;;;;;;8.90;7.87;;;;;;;11.39;80.58;95421.34;4989359;28;20219;-72
2023/10/24 00:30:02;;;;;;;9.70;8.80;;;;;;;11.31;80.87;95434.94;4989452;28;20174;-70
2023/10/24 00:32:28;;;;;;;8.87;7.90;;;;;;;11.47;79.84;95437.47;4989341;28;20194;-72
2023/10/24 00:34:53;;;;;;;9.50;8.70;;;;;;;11.52;79.89;95438.00;4989489;28;20424;-72
2023/10/24 00:37:19;;;;;;;8.37;7.67;;;;;;;11.64;79.62;95439.03;4989109;28;20165;-72
2023/10/24 00:39:44;;;;;;;8.20;7.50;;;;;;;11.56;80.31;95444.75;4987971;28;20223;-72
2023/10/24 00:42:09;;;;;;;9.33;8.40;;;;;;;11.56;79.69;95451.81;4989007;28;20176;-72
2023/10/24 00:44:35;;;;;;;10.20;8.13;;;;;;;11.64;79.08;95454.78;4987927;28;20636;-72
2023/10/24 00:47:01;;;;;;;9.13;8.30;;;;;;;11.72;78.80;95449.91;4989169;28;20571;-71
2023/10/24 00:49:27;;;;;;;9.53;8.63;;;;;;;11.83;79.33;95457.09;4988126;28;20208;-72
2023/10/24 00:51:55;;;;;;;9.43;8.20;;;;;;;11.84;79.25;95453.53;4988000;28;20409;-72
2023/10/24 00:54:21;;;;;;;10.33;7.67;;;;;;;11.75;78.91;95446.22;4987733;28;20775;-71
2023/10/24 00:56:50;;;;;;;8.90;7.93;;;;;;;11.63;79.62;95442.59;4988631;28;20408;-70
2023/10/24 00:59:19;;;;;;;8.77;7.97;;;;;;;11.78;78.64;95440.78;4987763;28;20404;-71
2023/10/24 01:01:45;;;;;;;9.97;8.00;;;;;;;11.76;79.02;95437.41;4988646;28;20408;-72
2023/10/24 01:04:11;;;;;;;8.97;7.80;;;;;;;11.84;79.33;95437.75;4988716;28;20418;-71
2023/10/24 01:06:37;;;;;;;9.23;8.30;;;;;;;11.81;79.42;95443.19;4988533;28;20733;-70
2023/10/24 01:09:03;;;;;;;10.33;8.57;;;;;;;11.78;78.35;95438.97;4988812;28;20463;-70
2023/10/24 01:11:28;;;;;;;12.10;8.40;;;;;;;11.73;79.74;95440.22;4988503;28;20645;-72
2023/10/24 01:13:54;;;;;;;10.33;8.60;;;;;;;11.78;78.64;95435.50;4988292;28;20531;-70
2023/10/24 01:16:20;;;;;;;10.57;9.57;;;;;;;11.82;78.64;95427.34;4988283;28;20228;-71
2023/10/24 01:18:46;;;;;;;10.47;8.50;;;;;;;11.84;78.39;95422.81;4988278;28;20181;-72
2023/10/24 01:21:11;;;;;;;10.07;9.07;;;;;;;11.71;78.86;95419.28;4988515;28;20502;-70
2023/10/24 01:23:37;;;;;;;11.80;8.93;;;;;;;11.49;79.93;95417.19;4987991;28;20239;-71
2023/10/24 01:26:06;;;;;;;11.27;8.57;;;;;;;11.51;80.10;95420.56;4988315;28;20309;-71
2023/10/24 01:28:31;;;;;;;11.33;10.13;;;;;;;11.64;79.52;95421.47;4988379;28;20245;-72
2023/10/24 01:30:57;;;;;;;10.30;8.57;;;;;;;11.69;79.90;95425.59;4988280;28;20824;-72
2023/10/24 01:33:22;;;;;;;11.37;8.00;;;;;;;11.75;79.17;95419.94;4988231;28;20181;-72
2023/10/24 01:35:48;;;;;;;10.37;9.27;;;;;;;11.75;78.91;95412.06;4987914;28;20197;-72
2023/10/24 01:38:13;;;;;;;11.00;9.17;;;;;;;11.78;78.59;95417.13;4988246;28;20169;-71
2023/10/24 01:40:39;;;;;;;8.87;7.90;;;;;;;11.70;79.22;95401.84;4987890;28;20597;-71
2023/10/24 01:43:04;;;;;;;8.30;7.50;;;;;;;11.69;79.02;95365.97;4987828;28;20169;-72
2023/10/24 01:45:29;;;;;;;11.10;9.97;;;;;;;11.21;81.55;95355.06;4987419;28;20933;-71
2023/10/24 01:47:55;;;;;;;11.03;9.87;;;;;;;10.87;83.41;95358.97;4987324;28;20299;-72
2023/10/24 01:50:20;;;;;;;11.00;9.90;;;;;;;11.00;83.07;95378.25;4987367;28;20184;-70
2023/10/24 01:52:47;;;;;;;14.20;10.33;;;;;;;11.31;81.78;95395.53;4987867;28;20188;-71
2023/10/24 01:55:12;;;;;;;12.83;10.53;;;;;;;11.56;80.82;95418.50;4987413;28;20681;-71
2023/10/24 01:57:37;;;;;;;15.00;9.83;;;;;;;11.60;80.35;95441.00;4988047;28;20554;-72
2023/10/24 02:00:03;;;;;;;11.13;9.17;;;;;;;11.65;79.63;95428.41;4987672;28;20187;-73
2023/10/24 02:02:29;;;;;;;12.43;9.77;;;;;;;11.65;79.75;95427.59;4987517;28;20264;-73
2023/10/24 02:04:54;;;;;;;16.87;9.73;;;;;;;11.68;80.01;95416.03;4987277;28;20501;-73
2023/10/24 02:07:20;;;;;;;11.03;8.90;;;;;;;11.69;80.37;95420.34;4987486;28;20204;-72
2023/10/24 02:09:45;;;;;;;9.67;8.77;;;;;;;11.82;79.32;95411.56;4987610;28;20173;-73
2023/10/24 02:12:11;;;;;;;11.23;9.73;;;;;;;11.75;79.37;95414.69;4987783;28;20180;-71
2023/10/24 02:14:36;;;;;;;13.60;8.53;;;;;;;11.72;79.77;95393.88;4987404;28;20192;-73
2023/10/24 02:17:02;;;;;;;11.50;9.80;;;;;;;11.71;80.34;95403.53;4987361;28;20177;-71
2023/10/24 02:19:27;;;;;;;11.47;9.30;;;;;;;11.72;79.54;95401.75;4987516;28;20211;-74
2023/10/24 02:21:53;;;;;;;11.43;9.90;;;;;;;11.77;79.69;95394.41;4987183;28;20771;-71
2023/10/24 02:24:18;;;;;;;10.63;9.63;;;;;;;11.86;79.26;95399.06;4986971;28;20203;-72
2023/10/24 02:26:44;;;;;;;11.00;9.90;;;;;;;11.74;79.63;95400.72;4987168;28;20691;-74
2023/10/24 02:29:09;;;;;;;10.37;9.47;;;;;;;11.54;80.80;95399.34;4987374;28;20332;-72
2023/10/24 02:31:34;;;;;;;12.97;10.50;;;;;;;11.51;81.07;95390.84;4987374;28;20177;-72
2023/10/24 02:34:00;;;;;;;10.83;9.83;;;;;;;11.61;79.82;95405.06;4987565;28;20173;-71
2023/10/24 02:36:25;;;;;;;10.53;9.53;;;;;;;11.47;80.59;95405.94;4987366;28;20250;-71
2023/10/24 02:38:51;;;;;;;10.23;9.17;;;;;;;11.38;81.39;95390.75;4986845;28;20172;-72
2023/10/24 02:41:16;;;;;;;12.07;10.70;;;;;;;11.47;81.33;95398.06;4986697;28;20578;-70
2023/10/24 02:43:41;;;;;;;11.23;9.23;;;;;;;11.62;80.44;95406.72;4986535;28;20939;-73
2023/10/24 02:46:07;;;;;;;11.00;9.90;;;;;;;11.75;79.99;95394.50;4968934;28;20206;-72
2023/10/24 02:48:32;;;;;;;13.20;10.33;;;;;;;11.38;81.50;95390.75;4986701;28;20212;-73
2023/10/24 02:50:58;;;;;;;11.37;10.17;;;;;;;11.41;81.33;95385.31;4986757;28;20184;-73
2023/10/24 02:53:24;;;;;;;11.27;10.07;;;;;;;11.52;80.81;95389.88;4986434;28;20227;-71
2023/10/24 02:55:50;;;;;;;15.77;10.13;;;;;;;11.36;81.63;95398.75;4986158;28;20631;-71
2023/10/24 02:58:17;;;;;;;11.77;10.57;;;;;;;11.25;81.73;95387.22;4986482;28;20415;-72
2023/10/24 03:00:43;;;;;;;11.50;9.37;;;;;;;11.24;82.05;95378.47;4986623;28;20450;-73
2023/10/24 03:03:12;;;;;;;12.60;10.60;;;;;;;11.43;81.48;95370.28;4986428;28;20496;-72
2023/10/24 03:05:38;;;;;;;16.40;11.17;;;;;;;11.38;81.75;95373.19;4986465;28;20436;-71
2023/10/24 03:08:04;;;;;;;12.03;10.40;;;;;;;11.51;80.61;95369.81;4986151;28;20467;-70
2023/10/24 03:10:29;;;;;;;10.20;9.20;;;;;;;11.47;80.75;95368.31;4986418;28;20638;-70
2023/10/24 03:12:55;;;;;;;12.33;9.43;;;;;;;11.44;81.25;95369.38;4986266;28;20408;-72
2023/10/24 03:15:21;;;;;;;12.13;10.50;;;;;;;11.53;80.93;95363.53;4986144;28;20605;-72
2023/10/24 03:17:46;;;;;;;14.87;10.47;;;;;;;11.62;80.34;95368.19;4986505;28;20180;-72
2023/10/24 03:20:12;;;;;;;14.83;13.23;;;;;;;11.59;81.04;95375.41;4986727;28;20192;-70
2023/10/24 03:22:38;;;;;;;12.37;11.00;;;;;;;11.52;80.52;95388.09;4986268;28;20184;-70
2023/10/24 03:25:03;;;;;;;12.33;11.03;;;;;;;11.60;80.19;95382.38;4985835;28;20676;-71
2023/10/24 03:27:29;;;;;;;14.13;12.37;;;;;;;11.64;80.33;95389.09;4985877;28;20208;-73
2023/10/24 03:29:54;;;;;;;15.00;11.00;;;;;;;11.56;80.63;95378.25;4986210;28;20181;-72
2023/10/24 03:32:20;;;;;;;10.93;9.83;;;;;;;11.49;81.43;95377.78;4986337;28;20203;-71
2023/10/24 03:34:45;;;;;;;11.43;10.13;;;;;;;11.56;80.45;95368.56;4986172;28;20189;-71
2023/10/24 03:37:11;;;;;;;13.97;10.57;;;;;;;11.56;80.69;95380.88;4986555;28;20925;-70
2023/10/24 03:39:36;;;;;;;12.37;11.17;;;;;;;11.58;80.22;95390.34;4986437;28;20180;-71
2023/10/24 03:42:02;;;;;;;11.53;10.43;;;;;;;11.50;80.68;95391.75;4985937;28;20204;-72
2023/10/24 03:44:27;;;;;;;13.23;10.73;;;;;;;11.54;80.62;95394.09;4985701;28;20185;-73
2023/10/24 03:46:53;;;;;;;10.67;9.60;;;;;;;11.57;81.34;95382.53;4985754;28;20173;-71
2023/10/24 03:49:18;;;;;;;12.30;9.63;;;;;;;11.61;80.48;95384.03;4986093;28;20175;-71
2023/10/24 03:51:43;;;;;;;12.50;11.30;;;;;;;11.65;80.11;95375.03;4986265;28;20173;-73
2023/10/24 03:54:09;;;;;;;14.17;11.47;;;;;;;11.59;80.40;95370.16;4986240;28;20180;-71
2023/10/24 03:56:35;;;;;;;12.83;10.20;;;;;;;11.77;79.70;95376.03;4986082;28;20224;-73
2023/10/24 03:59:01;;;;;;;11.87;10.77;;;;;;;11.64;80.85;95376.78;4985915;28;20184;-72
2023/10/24 04:01:26;;;;;;;11.20;9.60;;;;;;;11.64;80.73;95368.06;4985903;28;20591;-70
2023/10/24 04:03:52;;;;;;;16.23;10.13;;;;;;;11.55;80.41;95369.53;4985862;28;20180;-74
2023/10/24 04:06:18;;;;;;;12.43;10.27;;;;;;;11.61;80.11;95353.34;4985761;28;20285;-72
2023/10/24 04:08:44;;;;;;;11.93;10.73;;;;;;;11.59;80.43;95355.22;4985979;28;20216;-72
2023/10/24 04:11:14;;;;;;;11.40;9.50;;;;;;;11.57;80.80;95348.38;4985891;28;20669;-71
2023/10/24 04:13:40;;;;;;;11.90;9.17;;;;;;;11.47;80.57;95358.66;4985544;28;20404;-71
2023/10/24 04:16:05;;;;;;;11.37;10.10;;;;;;;11.50;80.94;95353.19;4985725;28;20806;-72
2023/10/24 04:18:31;;;;;;;13.57;10.63;;;;;;;11.54;80.21;95341.53;4986471;28;20494;-71
2023/10/24 04:20:56;;;;;;;11.43;10.23;;;;;;;11.49;80.59;95341.00;4989506;28;20248;-70
2023/10/24 04:23:21;;;;;;;12.60;10.80;;;;;;;11.59;80.02;95344.72;4989386;28;20177;-72
2023/10/24 04:25:47;;;;;;;12.33;10.50;;;;;;;11.28;81.72;95335.34;4985052;28;20221;-73
2023/10/24 04:28:13;;;;;;;11.77;9.60;;;;;;;11.35;80.69;95341.06;4987676;28;20212;-71
2023/10/24 04:30:39;;;;;;;17.27;10.70;;;;;;;11.43;80.58;95338.75;4989079;28;20175;-72
2023/10/24 04:33:05;;;;;;;18.07;10.07;;;;;;;11.26;81.36;95337.22;4990859;28;20262;-71
2023/10/24 04:35:30;;;;;;;13.03;10.83;;;;;;;11.39;80.53;95318.91;4989138;28;20463;-73
2023/10/24 04:37:56;;;;;;;12.87;11.07;;;;;;;11.45;80.93;95324.59;4989872;28;20169;-73
2023/10/24 04:40:21;;;;;;;10.70;9.67;;;;;;;11.41;80.64;95319.66;4988794;28;20606;-71
2023/10/24 04:42:49;;;;;;;11.30;10.20;;;;;;;11.16;81.45;95323.84;4988404;28;20699;-72
2023/10/24 04:45:14;;;;;;;12.10;10.90;;;;;;;11.37;81.37;95323.41;4986876;28;20212;-71
2023/10/24 04:47:40;;;;;;;12.90;11.60;;;;;;;11.26;81.12;95315.38;4987396;28;20471;-73
2023/10/24 04:50:06;;;;;;;12.70;11.20;;;;;;;11.22;81.56;95328.72;4986543;28;20180;-72
2023/10/24 04:52:31;;;;;;;13.60;11.80;;;;;;;11.29;80.86;95305.53;4989964;28;20320;-73
2023/10/24 04:54:56;;;;;;;13.57;11.53;;;;;;;10.98;82.88;95307.47;4990846;28;20211;-72
2023/10/24 04:57:22;;;;;;;14.90;12.67;;;;;;;10.92;83.48;95307.00;4989739;28;20192;-71
2023/10/24 04:59:47;;;;;;;13.97;11.50;;;;;;;11.02;82.95;95308.13;4985497;28;20191;-71
2023/10/24 05:02:12;;;;;;;16.20;13.33;;;;;;;11.13;81.64;95297.78;4984509;28;20674;-73
2023/10/24 05:04:38;;;;;;;14.27;12.77;;;;;;;11.06;82.23;95288.59;4984847;28;20975;-73
2023/10/24 05:07:03;;;;;;;17.70;11.07;;;;;;;10.95;82.54;95284.03;4992155;28;20173;-73
2023/10/24 05:09:29;;;;;;;14.37;12.93;;;;;;;11.13;82.26;95281.19;4987860;28;20177;-74
2023/10/24 05:11:54;;;;;;;16.03;14.37;;;;;;;11.19;81.72;95280.78;4982188;28;20189;-74
2023/10/24 05:14:19;;;;;;;17.77;14.93;;;;;;;11.19;81.42;95279.00;4985825;28;20181;-74
2023/10/24 05:16:45;;;;;;;17.07;14.93;;;;;;;11.19;81.06;95273.72;4984611;28;20239;-74
2023/10/24 05:19:10;;;;;;;18.67;14.77;;;;;;;11.22;81.27;95275.34;4983068;28;20185;-73
2023/10/24 05:21:35;;;;;;;18.30;15.13;;;;;;;11.21;80.80;95274.47;4986596;28;20188;-72
2023/10/24 05:24:01;;;;;;;17.17;13.40;;;;;;;11.23;81.20;95269.97;4989585;28;20185;-74
2023/10/24 05:26:26;;;;;;;15.37;13.97;;;;;;;11.27;81.08;95268.00;4988878;28;20201;-74
2023/10/24 05:28:52;;;;;;;17.93;15.10;;;;;;;11.16;81.55;95255.56;4984043;28;20429;-71
2023/10/24 05:31:17;;;;;;;16.50;14.63;;;;;;;11.26;80.92;95250.56;4980555;28;20181;-74
2023/10/24 05:33:44;;;;;;;17.13;15.27;;;;;;;11.06;81.02;95259.72;4981615;28;20185;-73
2023/10/24 05:36:09;;;;;;;14.20;12.70;;;;;;;10.74;83.15;95267.84;4978669;28;20228;-74
2023/10/24 05:38:34;;;;;;;14.10;12.63;;;;;;;10.96;82.77;95266.47;4981501;28;21147;-69
2023/10/24 05:41:00;;;;;;;23.70;14.50;;;;;;;10.96;82.22;95261.22;4976379;28;20177;-71
2023/10/24 05:43:26;;;;;;;13.83;12.50;;;;;;;10.95;82.02;95259.56;4985272;28;20184;-74
2023/10/24 05:45:51;;;;;;;18.63;14.07;;;;;;;10.95;82.20;95259.56;4963447;28;20745;-70
2023/10/24 05:48:17;;;;;;;26.10;15.20;;;;;;;11.14;81.45;95254.81;4985448;28;20205;-70
2023/10/24 05:50:44;;;;;;;16.23;13.60;;;;;;;11.11;81.19;95256.81;4985384;28;20172;-70
2023/10/24 05:53:09;;;;;;;17.50;14.93;;;;;;;11.10;81.59;95250.72;4985958;28;20183;-69
2023/10/24 05:55:35;;;;;;;17.10;15.07;;;;;;;11.05;81.09;95252.78;4983800;28;20452;-69
2023/10/24 05:58:00;;;;;;;22.57;14.00;;;;;;;11.11;81.06;95241.88;4994999;28;20176;-70
2023/10/24 06:00:26;;;;;;;16.63;14.37;;;;;;;11.23;80.89;95232.38;4984894;28;20250;-69
2023/10/24 06:02:51;;;;;;;17.10;13.37;;;;;;;11.06;81.41;95228.22;4984928;28;20235;-69
2023/10/24 06:05:16;;;;;;;15.80;12.90;;;;;;;11.08;80.96;95223.72;4992248;28;20193;-70
2023/10/24 06:07:42;;;;;;;15.27;13.67;;;;;;;11.14;81.47;95225.09;4985133;28;20718;-70
2023/10/24 06:10:08;;;;;;;16.47;14.77;;;;;;;11.14;81.05;95222.47;4984436;28;20304;-70
2023/10/24 06:12:33;;;;;;;16.17;14.20;;;;;;;11.10;81.37;95220.97;4984576;28;20263;-72
2023/10/24 06:14:59;;;;;;;19.97;14.67;;;;;;;11.17;81.93;95223.13;4984455;28;20199;-70
2023/10/24 06:17:24;;;;;;;16.70;14.17;;;;;;;11.10;81.40;95219.22;4984279;28;20180;-71
2023/10/24 06:19:51;;;;;;;37.60;16.73;;;;;;;11.05;81.83;95210.78;4984435;28;20192;-68
2023/10/24 06:22:17;;;;;;;17.40;14.47;;;;;;;11.05;81.62;95218.66;4984880;28;20243;-70
2023/10/24 06:24:42;;;;;;;24.10;14.90;;;;;;;11.00;82.04;95215.47;4984489;28;20428;-69
2023/10/24 06:27:10;;;;;;;16.70;14.93;;;;;;;11.01;81.91;95222.44;4985029;28;20191;-69
2023/10/24 06:29:36;;;;;;;20.50;15.00;;;;;;;11.14;81.66;95223.31;4986901;28;20200;-69
2023/10/24 06:32:01;;;;;;;16.20;14.50;;;;;;;10.99;81.72;95222.53;4986919;28;20499;-69
2023/10/24 06:34:26;;;;;;;15.20;13.60;;;;;;;10.90;82.19;95220.47;4986328;28;20279;-69
2023/10/24 06:36:52;;;;;;;17.90;14.77;;;;;;;10.85;82.89;95219.94;4986569;28;20209;-69
2023/10/24 06:39:17;;;;;;;15.80;13.47;;;;;;;10.81;83.10;95216.66;4986893;28;20176;-71
2023/10/24 06:41:45;;;;;;;18.43;15.93;;;;;;;10.83;82.82;95207.84;4985926;28;20704;-74
2023/10/24 06:44:10;;;;;;;15.83;14.13;;;;;;;10.70;83.77;95208.66;4985496;28;20266;-69
2023/10/24 06:46:35;;;;;;;16.77;15.17;;;;;;;10.69;83.87;95211.34;4985170;28;20551;-68
2023/10/24 06:49:01;;;;;;;20.77;15.90;;;;;;;10.75;82.89;95210.97;4986877;28;20989;-70
2023/10/24 06:51:26;;;;;;;25.33;16.00;;;;;;;10.66;83.15;95214.19;4986279;28;20215;-69
2023/10/24 06:53:51;;;;;;;22.67;18.43;;;;;;;10.56;83.60;95227.88;4986395;28;20172;-68
2023/10/24 06:56:17;;;;;;;18.57;16.20;;;;;;;10.74;83.19;95220.63;4987259;28;20726;-69
2023/10/24 06:58:42;;;;;;;16.83;15.13;;;;;;;10.78;82.69;95222.09;4991357;28;20173;-68
2023/10/24 07:01:08;;;;;;;17.53;15.67;;;;;;;10.72;83.22;95232.97;4986506;28;20267;-69
2023/10/24 07:03:33;;;;;;;15.47;13.87;;;;;;;10.87;82.56;95230.34;4986606;28;20217;-69
2023/10/24 07:05:58;;;;;;;14.60;13.10;;;;;;;10.58;84.11;95241.75;4986541;28;20221;-69
2023/10/24 07:08:24;;;;;;;15.20;13.60;;;;;;;10.37;84.91;95251.78;4986502;28;20656;-69
2023/10/24 07:10:49;;;;;;;16.10;14.10;;;;;;;10.63;84.02;95254.56;4986613;28;20176;-69
2023/10/24 07:13:15;;;;;;;13.93;12.27;;;;;;;10.67;84.01;95258.66;4986498;28;20188;-69
2023/10/24 07:15:41;;;;;;;12.17;10.93;;;;;;;10.63;83.34;95251.09;4986209;28;20300;-70
2023/10/24 07:18:06;;;;;;;13.67;12.27;;;;;;;10.80;82.84;95241.22;4986135;28;20354;-69
2023/10/24 07:20:36;;;;;;;13.93;12.23;;;;;;;10.73;83.28;95249.59;4986193;28;20196;-69
2023/10/24 07:23:02;;;;;;;12.50;11.20;;;;;;;10.98;81.97;95238.34;4986377;28;20260;-69
2023/10/24 07:25:28;;;;;;;13.43;12.03;;;;;;;10.93;82.56;95238.66;4985872;28;21578;-69
2023/10/24 07:27:54;;;;;;;12.23;10.97;;;;;;;10.84;82.89;95239.22;4985869;28;20468;-69
2023/10/24 07:30:19;;;;;;;13.33;11.93;;;;;;;10.78;83.31;95223.91;4986091;28;20648;-69
2023/10/24 07:32:44;;;;;;;12.90;11.47;;;;;;;10.87;83.33;95217.22;4986521;28;20456;-70
2023/10/24 07:35:10;;;;;;;14.20;11.47;;;;;;;10.79;82.79;95221.19;4985853;28;20199;-70
2023/10/24 07:37:36;;;;;;;14.20;11.87;;;;;;;10.83;83.47;95224.44;4986968;28;20255;-70
2023/10/24 07:40:04;;;;;;;14.43;12.50;;;;;;;10.88;83.39;95238.09;4986706;28;20259;-69
2023/10/24 07:42:30;;;;;;;13.03;11.70;;;;;;;11.00;82.36;95225.97;4986749;28;20212;-70
2023/10/24 07:44:56;;;;;;;12.80;11.50;;;;;;;10.92;82.72;95218.59;4985759;28;20456;-70
2023/10/24 07:47:21;;;;;;;12.67;11.30;;;;;;;11.07;82.63;95214.16;4986015;28;20205;-69
2023/10/24 07:49:47;;;;;;;14.73;12.57;;;;;;;11.23;81.34;95209.56;4986113;28;21236;-69
2023/10/24 07:52:12;;;;;;;14.87;13.37;;;;;;;10.97;83.10;95221.78;4986043;28;20215;-69
2023/10/24 07:54:38;;;;;;;17.97;13.10;;;;;;;11.18;82.31;95219.53;4988520;28;20199;-69
2023/10/24 07:57:04;;;;;;;14.77;13.27;;;;;;;11.27;81.64;95212.00;4989812;28;20222;-70
2023/10/24 07:59:29;;;;;;;17.17;13.80;;;;;;;11.25;81.63;95209.50;4989787;28;20707;-70
2023/10/24 08:01:55;;;;;;;15.87;13.80;;;;;;;11.31;81.53;95200.34;4989933;28;20407;-69
2023/10/24 08:04:20;;;;;;;16.03;12.13;;;;;;;11.47;80.07;95206.28;4989904;28;20353;-69
2023/10/24 08:06:46;;;;;;;17.50;15.70;;;;;;;11.31;81.14;95213.47;4989980;28;20283;-70
2023/10/24 08:09:11;;;;;;;14.90;13.13;;;;;;;11.34;80.80;95208.03;4990041;28;20204;-69
2023/10/24 08:11:37;;;;;;;15.90;14.20;;;;;;;11.22;81.19;95213.16;4989833;28;20177;-70
2023/10/24 08:14:02;;;;;;;18.63;14.23;;;;;;;11.40;81.41;95212.88;4989366;28;20184;-70
2023/10/24 08:16:28;;;;;;;17.83;12.53;;;;;;;11.53;80.26;95211.13;4989834;28;20283;-70
2023/10/24 08:18:53;;;;;;;16.07;13.30;;;;;;;11.60;80.44;95199.28;4989847;28;20175;-70
2023/10/24 08:21:19;;;;;;;17.43;13.83;;;;;;;11.77;79.95;95210.44;4989759;28;20276;-70
2023/10/24 08:23:44;;;;;;;16.73;14.40;;;;;;;11.40;80.48;95208.47;4989191;28;20236;-69
2023/10/24 08:26:09;;;;;;;15.90;14.30;;;;;;;11.69;80.09;95202.22;4989188;28;20616;-70
2023/10/24 08:28:35;;;;;;;20.00;14.73;;;;;;;11.88;79.45;95196.56;4989247;28;20216;-69
2023/10/24 08:31:00;;;;;;;16.37;14.67;;;;;;;11.35;81.72;95202.69;4989406;28;20203;-70
2023/10/24 08:33:26;;;;;;;15.57;13.73;;;;;;;11.60;81.44;95203.69;4989042;28;20280;-68
2023/10/24 08:35:51;;;;;;;17.63;14.37;;;;;;;11.72;80.40;95202.84;4989348;28;20204;-70
2023/10/24 08:38:16;;;;;;;21.73;15.00;;;;;;;11.65;80.38;95207.69;4989301;28;20215;-70
2023/10/24 08:40:42;;;;;;;18.70;16.80;;;;;;;11.39;81.72;95206.78;4989357;28;20263;-70
2023/10/24 08:43:11;;;;;;;16.73;13.97;;;;;;;11.44;81.60;95202.06;4989310;28;20176;-69
2023/10/24 08:45:36;;;;;;;17.57;15.70;;;;;;;11.48;81.81;95199.22;4988486;28;20656;-69
2023/10/24 08:48:05;;;;;;;16.37;14.87;;;;;;;11.60;81.33;95201.91;4988980;28;20460;-69
2023/10/24 08:50:31;;;;;;;18.77;16.80;;;;;;;11.71;80.59;95202.94;4989028;28;20191;-70
2023/10/24 08:52:57;;;;;;;16.73;14.93;;;;;;;11.60;81.21;95207.16;4989106;28;20412;-69
2023/10/24 08:55:24;;;;;;;20.67;15.20;;;;;;;11.14;83.39;95218.06;4988821;28;20812;-70
2023/10/24 08:57:50;;;;;;;18.20;14.90;;;;;;;11.29;83.55;95210.97;4988763;28;20196;-69
2023/10/24 09:00:16;;;;;;;18.07;15.70;;;;;;;11.48;82.23;95213.22;4988891;28;20412;-69
2023/10/24 09:02:43;;;;;;;16.47;14.77;;;;;;;11.64;81.59;95207.78;4988975;28;20419;-70
2023/10/24 09:05:13;;;;;;;17.27;14.70;;;;;;;11.71;81.31;95216.09;4987835;28;20201;-70
2023/10/24 09:07:38;;;;;;;20.13;16.60;;;;;;;11.63;82.18;95212.19;4988835;28;20519;-70
2023/10/24 09:10:04;;;;;;;19.30;17.40;;;;;;;11.68;82.03;95216.31;4971401;28;21060;-70
2023/10/24 09:12:31;;;;;;;23.13;16.73;;;;;;;11.57;83.04;95225.72;4988854;28;20220;-70
2023/10/24 09:14:58;;;;;;;18.37;16.47;;;;;;;11.61;82.33;95224.59;4988746;28;20522;-70
2023/10/24 09:17:24;;;;;;;19.23;15.20;;;;;;;11.58;82.14;95219.53;4988208;28;20412;-69
2023/10/24 09:19:50;;;;;;;18.53;16.03;;;;;;;11.85;81.80;95229.97;4988868;28;20527;-69
2023/10/24 09:22:17;;;;;;;20.67;16.50;;;;;;;11.96;82.14;95221.41;4971073;28;20559;-69
2023/10/24 09:24:46;;;;;;;23.40;17.13;;;;;;;12.00;81.75;95212.38;4988319;28;20250;-69
2023/10/24 09:27:16;;;;;;;26.20;19.50;;;;;;;12.13;81.26;95209.72;4988189;28;20566;-69
2023/10/24 09:29:41;;;;;;;30.57;17.40;;;;;;;12.17;81.30;95213.00;4988504;28;20866;-69
2023/10/24 09:32:14;;;;;;;27.53;16.13;;;;;;;12.31;80.69;95215.50;4988199;28;20420;-69
2023/10/24 09:34:44;;;;;;;21.87;15.27;;;;;;;12.26;80.91;95207.09;4988281;28;20180;-69
2023/10/24 09:37:13;;;;;;;24.87;16.40;;;;;;;12.33;80.93;95211.00;4987949;28;20501;-70
2023/10/24 09:40:00;;;;;;;32.30;17.10;;;;;;;12.29;81.20;95212.13;4988940;28;20491;-69
2023/10/24 09:42:28;;;;;;;25.13;15.40;;;;;;;12.33;81.10;95211.00;4990059;28;20510;-70
2023/10/24 09:44:56;;;;;;;19.07;15.00;;;;;;;12.37;81.77;95207.16;4988193;28;20443;-69
2023/10/24 09:47:23;;;;;;;24.77;15.23;;;;;;;12.41;80.98;95211.28;4987848;28;20420;-70
2023/10/24 09:49:51;;;;;;;36.57;18.30;;;;;;;12.45;81.53;95207.50;4987808;28;20408;-69
2023/10/24 09:52:18;;;;;;;50.77;20.33;;;;;;;12.49;82.15;95203.66;4988044;28;20404;-70
2023/10/24 09:54:47;;;;;;;53.40;19.20;;;;;;;12.49;82.66;95208.94;4987545;28;21187;-70
2023/10/24 09:57:16;;;;;;;55.63;18.30;;;;;;;12.41;82.67;95211.28;4988261;28;20939;-70
2023/10/24 09:59:44;;;;;;;26.07;15.07;;;;;;;12.36;83.30;95221.28;4988035;28;20423;-68
2023/10/24 10:02:10;;;;;;;25.00;15.17;;;;;;;12.33;83.58;95223.28;4988324;28;20426;-69
2023/10/24 10:04:37;;;;;;;25.73;17.30;;;;;;;12.41;83.55;95224.44;4988208;28;20442;-69
2023/10/24 10:07:03;;;;;;;28.57;14.80;;;;;;;12.39;84.01;95228.97;4987413;28;20503;-69
2023/10/24 10:09:29;;;;;;;25.20;15.97;;;;;;;12.23;83.92;95238.84;4987721;28;20432;-68
2023/10/24 10:12:01;;;;;;;28.67;17.30;;;;;;;12.17;85.27;95239.28;4987663;28;20582;-69
2023/10/24 10:15:08;;;;;;;31.63;17.00;;;;;;;12.32;83.92;95234.75;4987690;28;20181;-69
2023/10/24 10:18:05;;;;;;;26.87;16.13;;;;;;;12.21;85.07;95227.59;4978601;28;20435;-68
2023/10/24 10:20:48;;;;;;;20.83;14.37;;;;;;;12.33;84.74;95224.13;4983174;28;20447;-70
2023/10/24 10:23:36;;;;;;;26.07;15.07;;;;;;;12.41;84.91;95216.53;4987676;28;20754;-70
2023/10/24 10:26:07;;;;;;;21.10;13.90;;;;;;;12.40;84.92;95214.00;4987186;28;20436;-70
2023/10/24 10:28:54;;;;;;;16.33;14.63;;;;;;;12.45;85.04;95204.84;4988316;28;20475;-70
2023/10/24 10:31:54;;;;;;;17.00;13.87;;;;;;;12.46;85.43;95210.97;4988313;28;20858;-70
2023/10/24 10:34:31;;;;;;;15.97;14.07;;;;;;;12.61;84.57;95211.66;4967812;28;20420;-70
2023/10/24 10:36:57;;;;;;;17.57;13.90;;;;;;;12.57;84.84;95205.78;4968372;28;20408;-70
2023/10/24 10:39:22;;;;;;;17.87;14.70;;;;;;;12.60;85.25;95209.97;4967959;28;20944;-69
2023/10/24 10:41:47;;;;;;;15.40;13.77;;;;;;;12.41;86.23;95198.13;4967698;28;20176;-70
2023/10/24 10:44:42;;;;;;;20.23;14.30;;;;;;;12.16;86.86;95196.34;4967417;28;20183;-69
2023/10/24 10:47:11;;;;;;;22.80;16.03;;;;;;;12.21;87.55;95203.94;4967174;28;20185;-70
2023/10/24 10:49:46;;;;;;;23.17;15.63;;;;;;;12.23;87.77;95196.78;4967534;28;20762;-69
2023/10/24 10:52:33;;;;;;;18.30;16.30;;;;;;;12.27;87.16;95183.31;4968384;28;20458;-69
2023/10/24 10:55:11;;;;;;;21.93;16.50;;;;;;;12.45;86.66;95193.50;4969765;28;20437;-69
2023/10/24 10:57:54;;;;;;;21.50;17.87;;;;;;;12.29;88.24;95176.16;4968786;28;20405;-68
2023/10/24 11:00:24;;;;;;;20.90;17.67;;;;;;;12.34;87.87;95169.72;4969003;28;20420;-70
2023/10/24 11:03:13;;;;;;;23.90;17.37;;;;;;;12.49;86.87;95166.84;4969029;28;20496;-69
2023/10/24 11:05:38;;;;;;;21.53;15.90;;;;;;;12.53;87.88;95164.84;4968533;28;20905;-69
2023/10/24 11:08:09;;;;;;;23.03;16.83;;;;;;;12.55;87.32;95170.84;4968257;28;20536;-69
2023/10/24 11:10:50;;;;;;;19.03;16.47;;;;;;;12.44;87.62;95171.59;4968115;28;20256;-70
2023/10/24 11:13:42;;;;;;;24.87;17.80;;;;;;;12.57;87.29;95162.84;4968515;28;20487;-68
2023/10/24 11:16:10;;;;;;;33.27;16.90;;;;;;;12.55;87.72;95154.22;4968207;28;20464;-69
2023/10/24 11:18:36;;;;;;;23.30;15.70;;;;;;;12.43;88.15;95161.19;4968177;28;20428;-68